createdAt,value
2022-11-17T00:00:29.233Z,61.07
2022-11-17T00:01:29.216Z,53.33
2022-11-17T00:02:29.321Z,52.85
2022-11-17T00:03:29.200Z,58.97
2022-11-17T00:04:29.220Z,53.98
2022-11-17T00:05:29.181Z,49.47
2022-11-17T00:06:29.172Z,44.79
2022-11-17T00:07:29.293Z,45.76
2022-11-17T00:08:29.166Z,43.67
2022-11-17T00:09:29.180Z,42.70
2022-11-17T00:10:29.143Z,47.21
2022-11-17T00:11:29.139Z,46.25
2022-11-17T00:12:32.839Z,47.37
2022-11-17T00:13:30.122Z,42.06
2022-11-17T00:14:29.139Z,43.02
2022-11-17T00:15:29.113Z,48.34
2022-11-17T00:16:29.109Z,49.63
2022-11-17T00:17:29.098Z,44.96
2022-11-17T00:18:29.083Z,46.08
2022-11-17T00:19:29.110Z,57.52
2022-11-17T00:20:29.071Z,52.05
2022-11-17T00:21:29.062Z,49.31
2022-11-17T00:22:29.055Z,49.95
2022-11-17T00:23:29.123Z,49.15
2022-11-17T00:24:29.063Z,53.98
2022-11-17T00:25:29.029Z,53.66
2022-11-17T00:26:29.021Z,44.96
2022-11-17T00:27:29.018Z,45.44
2022-11-17T00:28:29.003Z,44.63
2022-11-17T00:29:29.021Z,49.47
2022-11-17T00:30:28.992Z,55.75
2022-11-17T00:31:28.979Z,58.33
2022-11-17T00:32:28.973Z,56.56
2022-11-17T00:33:28.968Z,51.08
2022-11-17T00:34:28.985Z,48.66
2022-11-17T00:35:28.953Z,49.47
2022-11-17T00:36:28.942Z,50.92
2022-11-17T00:37:28.936Z,50.76
2022-11-17T00:38:28.926Z,55.59
2022-11-17T00:39:29.020Z,44.79
2022-11-17T00:40:28.929Z,44.47
2022-11-17T00:41:28.912Z,47.70
2022-11-17T00:42:28.895Z,51.40
2022-11-17T00:43:28.889Z,46.89
2022-11-17T00:44:28.906Z,44.63
2022-11-17T00:45:28.880Z,43.02
2022-11-17T00:46:28.868Z,43.67
2022-11-17T00:47:28.859Z,44.47
2022-11-17T00:48:28.855Z,49.63
2022-11-17T00:49:28.871Z,56.40
2022-11-17T00:50:28.833Z,46.73
2022-11-17T00:51:28.826Z,50.11
2022-11-17T00:52:28.821Z,44.15
2022-11-17T00:53:28.813Z,43.67
2022-11-17T00:54:28.827Z,44.31
2022-11-17T00:55:28.984Z,44.79
2022-11-17T00:56:28.787Z,47.21
2022-11-17T00:57:28.785Z,46.41
2022-11-17T00:58:28.776Z,49.47
2022-11-17T00:59:28.768Z,48.50
2022-11-17T01:00:28.783Z,50.11
2022-11-17T01:01:28.767Z,50.76
2022-11-17T01:02:28.745Z,47.70
2022-11-17T01:03:28.737Z,48.66
2022-11-17T01:04:28.723Z,49.79
2022-11-17T01:05:32.872Z,44.31
2022-11-17T01:06:29.714Z,43.67
2022-11-17T01:07:28.768Z,50.43
2022-11-17T01:08:28.694Z,48.02
2022-11-17T01:09:28.691Z,46.73
2022-11-17T01:10:28.702Z,48.18
2022-11-17T01:11:28.743Z,49.95
2022-11-17T01:12:28.661Z,43.51
2022-11-17T01:13:28.657Z,42.54
2022-11-17T01:14:28.646Z,42.54
2022-11-17T01:15:28.666Z,43.18
2022-11-17T01:16:28.652Z,47.86
2022-11-17T01:17:28.629Z,44.96
2022-11-17T01:18:28.618Z,45.92
2022-11-17T01:19:28.606Z,43.34
2022-11-17T01:20:28.629Z,50.11
2022-11-17T01:21:28.611Z,56.56
2022-11-17T01:22:28.585Z,51.24
2022-11-17T01:23:28.600Z,46.73
2022-11-17T01:24:28.566Z,51.08
2022-11-17T01:25:28.598Z,45.76
2022-11-17T01:26:28.552Z,55.27
2022-11-17T01:27:28.547Z,55.59
2022-11-17T01:28:28.542Z,50.43
2022-11-17T01:29:28.528Z,52.21
2022-11-17T01:30:28.549Z,53.50
2022-11-17T01:31:28.514Z,42.38
2022-11-17T01:32:28.504Z,43.02
2022-11-17T01:33:28.498Z,43.02
2022-11-17T01:34:28.492Z,43.34
2022-11-17T01:35:28.514Z,45.60
2022-11-17T01:36:28.477Z,43.67
2022-11-17T01:37:28.469Z,46.25
2022-11-17T01:38:28.464Z,53.98
2022-11-17T01:39:28.458Z,50.60
2022-11-17T01:40:28.471Z,51.24
2022-11-17T01:41:28.440Z,46.25
2022-11-17T01:42:28.432Z,46.41
2022-11-17T01:43:28.497Z,48.18
2022-11-17T01:44:28.415Z,46.41
2022-11-17T01:45:28.424Z,47.53
2022-11-17T01:46:28.422Z,47.05
2022-11-17T01:47:28.392Z,46.08
2022-11-17T01:48:28.381Z,48.66
2022-11-17T01:49:28.371Z,55.43
2022-11-17T01:50:28.371Z,43.34
2022-11-17T01:51:28.381Z,43.83
2022-11-17T01:52:28.354Z,47.53
2022-11-17T01:53:28.342Z,46.89
2022-11-17T01:54:28.336Z,48.18
2022-11-17T01:55:28.327Z,52.85
2022-11-17T01:56:28.342Z,49.31
2022-11-17T01:57:28.325Z,48.02
2022-11-17T01:58:28.301Z,51.40
2022-11-17T01:59:28.364Z,47.05
2022-11-17T02:00:28.293Z,45.60
2022-11-17T02:01:28.334Z,52.05
2022-11-17T02:02:28.274Z,52.37
2022-11-17T02:03:28.263Z,40.93
2022-11-17T02:04:28.259Z,41.09
2022-11-17T02:05:28.248Z,49.63
2022-11-17T02:06:28.264Z,44.79
2022-11-17T02:07:28.301Z,45.76
2022-11-17T02:08:28.228Z,55.59
2022-11-17T02:09:28.217Z,44.79
2022-11-17T02:10:28.223Z,45.60
2022-11-17T02:11:28.230Z,44.63
2022-11-17T02:12:28.189Z,56.07
2022-11-17T02:13:28.185Z,47.21
2022-11-17T02:14:28.178Z,43.67
2022-11-17T02:15:28.169Z,48.18
2022-11-17T02:16:28.183Z,54.62
2022-11-17T02:17:28.153Z,50.27
2022-11-17T02:18:28.146Z,47.21
2022-11-17T02:19:28.138Z,44.31
2022-11-17T02:20:28.128Z,51.56
2022-11-17T02:21:28.145Z,52.85
2022-11-17T02:22:28.112Z,51.40
2022-11-17T02:23:28.104Z,50.27
2022-11-17T02:24:28.095Z,52.69
2022-11-17T02:25:28.088Z,50.11
2022-11-17T02:26:28.110Z,43.99
2022-11-17T02:27:28.071Z,43.67
2022-11-17T02:28:28.065Z,47.05
2022-11-17T02:29:28.057Z,45.60
2022-11-17T02:30:28.046Z,47.53
2022-11-17T02:31:28.280Z,47.86
2022-11-17T02:32:28.036Z,54.46
2022-11-17T02:33:28.023Z,45.12
2022-11-17T02:34:28.014Z,43.34
2022-11-17T02:35:28.005Z,45.60
2022-11-17T02:36:28.023Z,47.05
2022-11-17T02:37:27.991Z,53.50
2022-11-17T02:38:27.982Z,52.37
2022-11-17T02:39:27.971Z,47.21
2022-11-17T02:40:27.962Z,51.72
2022-11-17T02:41:27.986Z,52.69
2022-11-17T02:42:27.946Z,49.31
2022-11-17T02:43:27.937Z,41.73
2022-11-17T02:44:27.931Z,41.57
2022-11-17T02:45:27.920Z,55.43
2022-11-17T02:46:27.910Z,56.88
2022-11-17T02:47:27.924Z,49.15
2022-11-17T02:48:27.895Z,46.73
2022-11-17T02:49:27.891Z,48.34
2022-11-17T02:50:28.575Z,47.86
2022-11-17T02:51:28.869Z,53.01
2022-11-17T02:52:27.885Z,45.60
2022-11-17T02:53:27.857Z,46.57
2022-11-17T02:54:27.849Z,43.83
2022-11-17T02:55:27.854Z,42.06
2022-11-17T02:56:27.830Z,45.92
2022-11-17T02:57:27.843Z,52.21
2022-11-17T02:58:27.819Z,58.97
2022-11-17T02:59:27.835Z,47.53
2022-11-17T03:00:27.801Z,47.37
2022-11-17T03:01:27.828Z,48.98
2022-11-17T03:02:27.788Z,47.21
2022-11-17T03:03:27.772Z,43.67
2022-11-17T03:04:27.785Z,44.63
2022-11-17T03:05:27.756Z,46.73
2022-11-17T03:06:27.749Z,53.33
2022-11-17T03:07:27.791Z,50.43
2022-11-17T03:08:32.803Z,45.60
2022-11-17T03:09:29.772Z,44.31
2022-11-17T03:10:27.718Z,42.38
2022-11-17T03:11:27.708Z,45.60
2022-11-17T03:12:27.705Z,53.17
2022-11-17T03:13:27.690Z,43.18
2022-11-17T03:14:27.704Z,45.76
2022-11-17T03:15:27.677Z,51.88
2022-11-17T03:16:27.671Z,49.31
2022-11-17T03:17:27.665Z,50.11
2022-11-17T03:18:27.657Z,42.86
2022-11-17T03:19:27.676Z,43.34
2022-11-17T03:20:27.638Z,53.50
2022-11-17T03:21:27.629Z,46.73
2022-11-17T03:22:27.628Z,46.89
2022-11-17T03:23:27.616Z,56.24
2022-11-17T03:24:27.638Z,55.59
2022-11-17T03:25:27.596Z,57.69
2022-11-17T03:26:27.590Z,54.79
2022-11-17T03:27:27.586Z,47.86
2022-11-17T03:28:27.576Z,45.92
2022-11-17T03:29:27.571Z,41.89
2022-11-17T03:30:27.583Z,51.56
2022-11-17T03:31:27.556Z,45.76
2022-11-17T03:32:27.548Z,48.66
2022-11-17T03:33:27.541Z,48.66
2022-11-17T03:34:27.537Z,47.05
2022-11-17T03:35:27.640Z,53.98
2022-11-17T03:36:27.517Z,55.75
2022-11-17T03:37:27.514Z,49.79
2022-11-17T03:38:27.508Z,51.08
2022-11-17T03:39:27.498Z,59.30
2022-11-17T03:40:27.518Z,45.60
2022-11-17T03:41:27.481Z,46.57
2022-11-17T03:42:27.469Z,46.41
2022-11-17T03:43:27.466Z,47.37
2022-11-17T03:44:27.460Z,46.73
2022-11-17T03:45:27.473Z,45.76
2022-11-17T03:46:27.441Z,52.37
2022-11-17T03:47:27.434Z,52.37
2022-11-17T03:48:27.422Z,60.91
2022-11-17T03:49:27.413Z,58.01
2022-11-17T03:50:27.430Z,54.30
2022-11-17T03:51:27.472Z,47.21
2022-11-17T03:52:27.386Z,53.33
2022-11-17T03:53:27.379Z,52.05
2022-11-17T03:54:27.375Z,52.05
2022-11-17T03:55:27.386Z,57.20
2022-11-17T03:56:27.357Z,51.72
2022-11-17T03:57:27.334Z,51.72
2022-11-17T03:58:28.343Z,48.82
2022-11-17T03:59:27.334Z,53.01
2022-11-17T04:00:27.353Z,54.46
2022-11-17T04:01:27.357Z,54.46
2022-11-17T04:02:27.309Z,51.88
2022-11-17T04:03:27.306Z,49.31
2022-11-17T04:04:27.293Z,47.70
2022-11-17T04:05:27.311Z,54.46
2022-11-17T04:06:27.282Z,47.21
2022-11-17T04:07:27.437Z,54.30
2022-11-17T04:08:27.264Z,52.05
2022-11-17T04:09:27.254Z,46.89
2022-11-17T04:10:27.271Z,50.76
2022-11-17T04:11:27.247Z,57.20
2022-11-17T04:12:27.229Z,48.98
2022-11-17T04:13:27.221Z,53.01
2022-11-17T04:14:27.213Z,50.92
2022-11-17T04:15:27.236Z,48.34
2022-11-17T04:16:27.198Z,51.88
2022-11-17T04:17:27.191Z,55.59
2022-11-17T04:18:27.227Z,54.62
2022-11-17T04:19:27.179Z,60.26
2022-11-17T04:20:27.194Z,57.69
2022-11-17T04:21:27.159Z,57.69
2022-11-17T04:22:27.156Z,49.79
2022-11-17T04:23:27.147Z,48.18
2022-11-17T04:24:27.138Z,54.95
2022-11-17T04:25:27.154Z,55.91
2022-11-17T04:26:27.123Z,50.92
2022-11-17T04:27:27.116Z,51.40
2022-11-17T04:28:27.110Z,59.62
2022-11-17T04:29:27.099Z,54.30
2022-11-17T04:30:27.123Z,52.05
2022-11-17T04:31:27.085Z,56.40
2022-11-17T04:32:27.074Z,57.36
2022-11-17T04:33:27.065Z,61.55
2022-11-17T04:34:28.062Z,57.04
2022-11-17T04:35:27.054Z,59.78
2022-11-17T04:36:27.070Z,54.30
2022-11-17T04:37:27.035Z,56.24
2022-11-17T04:38:27.027Z,60.75
2022-11-17T04:39:27.093Z,59.30
2022-11-17T04:40:27.015Z,57.36
2022-11-17T04:41:27.028Z,56.88
2022-11-17T04:42:27.001Z,59.30
2022-11-17T04:43:26.993Z,58.17
2022-11-17T04:44:26.990Z,60.26
2022-11-17T04:45:26.977Z,57.36
2022-11-17T04:46:26.989Z,55.59
2022-11-17T04:47:26.962Z,58.97
2022-11-17T04:48:26.950Z,53.66
2022-11-17T04:49:26.947Z,56.56
2022-11-17T04:50:26.940Z,57.52
2022-11-17T04:51:26.951Z,58.01
2022-11-17T04:52:29.741Z,57.04
2022-11-17T04:53:27.913Z,63.00
2022-11-17T04:54:26.907Z,57.04
2022-11-17T04:55:26.897Z,55.43
2022-11-17T04:56:26.917Z,54.62
2022-11-17T04:57:26.891Z,61.07
2022-11-17T04:58:26.876Z,55.27
2022-11-17T04:59:26.870Z,51.72
2022-11-17T05:00:26.861Z,51.72
2022-11-17T05:01:26.878Z,55.11
2022-11-17T05:02:26.892Z,56.56
2022-11-17T05:03:26.829Z,56.24
2022-11-17T05:04:27.824Z,55.43
2022-11-17T05:05:26.824Z,53.33
2022-11-17T05:06:26.843Z,54.46
2022-11-17T05:07:26.860Z,56.40
2022-11-17T05:08:26.800Z,59.94
2022-11-17T05:09:26.797Z,58.65
2022-11-17T05:10:26.783Z,56.72
2022-11-17T05:11:26.888Z,61.87
2022-11-17T05:12:26.766Z,59.78
2022-11-17T05:13:26.755Z,61.55
2022-11-17T05:14:26.744Z,62.36
2022-11-17T05:15:26.742Z,55.27
2022-11-17T05:16:26.754Z,53.82
2022-11-17T05:17:26.734Z,64.45
2022-11-17T05:18:26.712Z,60.59
2022-11-17T05:19:26.712Z,54.14
2022-11-17T05:20:26.705Z,55.91
2022-11-17T05:21:26.713Z,62.52
2022-11-17T05:22:26.690Z,58.81
2022-11-17T05:23:26.682Z,57.69
2022-11-17T05:24:26.670Z,59.62
2022-11-17T05:25:26.663Z,61.71
2022-11-17T05:26:26.682Z,52.53
2022-11-17T05:27:26.646Z,61.07
2022-11-17T05:28:26.639Z,61.23
2022-11-17T05:29:26.631Z,60.10
2022-11-17T05:30:26.624Z,59.94
2022-11-17T05:31:26.660Z,60.42
2022-11-17T05:32:26.606Z,61.23
2022-11-17T05:33:26.595Z,62.68
2022-11-17T05:34:26.594Z,57.69
2022-11-17T05:35:26.580Z,61.07
2022-11-17T05:36:26.572Z,56.56
2022-11-17T05:37:26.598Z,63.65
2022-11-17T05:38:26.559Z,60.26
2022-11-17T05:39:26.548Z,60.75
2022-11-17T05:40:26.543Z,55.27
2022-11-17T05:41:26.565Z,63.49
2022-11-17T05:42:26.527Z,59.78
2022-11-17T05:43:26.590Z,60.10
2022-11-17T05:44:26.507Z,62.20
2022-11-17T05:45:26.500Z,63.00
2022-11-17T05:46:26.486Z,61.55
2022-11-17T05:47:26.510Z,62.84
2022-11-17T05:48:26.478Z,59.30
2022-11-17T05:49:26.475Z,59.78
2022-11-17T05:50:26.460Z,57.52
2022-11-17T05:51:26.452Z,62.84
2022-11-17T05:52:26.476Z,60.26
2022-11-17T05:53:26.438Z,57.85
2022-11-17T05:54:26.442Z,61.39
2022-11-17T05:55:26.426Z,60.26
2022-11-17T05:56:26.421Z,61.71
2022-11-17T05:57:26.443Z,59.14
2022-11-17T05:58:26.402Z,58.33
2022-11-17T05:59:28.187Z,57.04
2022-11-17T06:00:27.379Z,53.98
2022-11-17T06:01:26.385Z,60.59
2022-11-17T06:02:26.397Z,59.46
2022-11-17T06:03:27.359Z,60.10
2022-11-17T06:04:26.437Z,58.01
2022-11-17T06:05:26.346Z,61.39
2022-11-17T06:06:26.337Z,62.36
2022-11-17T06:07:26.397Z,65.42
2022-11-17T06:08:26.326Z,61.55
2022-11-17T06:09:26.330Z,57.36
2022-11-17T06:10:26.307Z,63.81
2022-11-17T06:11:26.292Z,61.55
2022-11-17T06:12:26.316Z,59.46
2022-11-17T06:13:26.286Z,61.87
2022-11-17T06:14:26.278Z,62.36
2022-11-17T06:15:26.274Z,59.94
2022-11-17T06:16:26.258Z,62.52
2022-11-17T06:17:26.281Z,61.87
2022-11-17T06:18:26.242Z,57.04
2022-11-17T06:19:26.232Z,61.87
2022-11-17T06:20:26.225Z,63.81
2022-11-17T06:21:26.222Z,63.33
2022-11-17T06:22:26.239Z,60.59
2022-11-17T06:23:26.199Z,62.36
2022-11-17T06:24:26.194Z,59.30
2022-11-17T06:25:26.184Z,59.94
2022-11-17T06:26:26.178Z,63.33
2022-11-17T06:27:26.211Z,60.75
2022-11-17T06:28:26.161Z,62.36
2022-11-17T06:29:26.154Z,59.14
2022-11-17T06:30:26.148Z,59.94
2022-11-17T06:31:26.187Z,59.62
2022-11-17T06:32:26.159Z,60.10
2022-11-17T06:33:26.131Z,60.26
2022-11-17T06:34:26.113Z,60.10
2022-11-17T06:35:26.103Z,61.55
2022-11-17T06:36:26.099Z,63.97
2022-11-17T06:37:26.121Z,63.49
2022-11-17T06:38:26.086Z,62.20
2022-11-17T06:39:26.077Z,59.46
2022-11-17T06:40:26.072Z,58.49
2022-11-17T06:41:26.064Z,58.17
2022-11-17T06:42:26.082Z,61.55
2022-11-17T06:43:26.062Z,61.55
2022-11-17T06:44:26.057Z,60.91
2022-11-17T06:45:26.027Z,60.26
2022-11-17T06:46:26.022Z,61.23
2022-11-17T06:47:26.113Z,63.65
2022-11-17T06:48:26.010Z,60.75
2022-11-17T06:49:26.000Z,61.07
2022-11-17T06:50:25.993Z,62.36
2022-11-17T06:51:25.979Z,59.78
2022-11-17T06:52:26.008Z,61.87
2022-11-17T06:53:25.965Z,61.71
2022-11-17T06:54:25.957Z,62.36
2022-11-17T06:55:25.959Z,63.97
2022-11-17T06:56:25.941Z,62.36
2022-11-17T06:57:25.964Z,60.75
2022-11-17T06:58:25.934Z,64.29
2022-11-17T06:59:25.925Z,60.91
2022-11-17T07:00:25.909Z,60.26
2022-11-17T07:01:25.956Z,57.20
2022-11-17T07:02:25.923Z,61.39
2022-11-17T07:03:25.955Z,60.42
2022-11-17T07:04:25.885Z,62.04
2022-11-17T07:05:25.875Z,66.06
2022-11-17T07:06:25.867Z,62.36
2022-11-17T07:07:25.876Z,60.10
2022-11-17T07:08:25.849Z,63.49
2022-11-17T07:09:25.834Z,59.78
2022-11-17T07:10:25.828Z,61.87
2022-11-17T07:11:25.828Z,58.49
2022-11-17T07:12:25.865Z,61.07
2022-11-17T07:13:25.811Z,58.49
2022-11-17T07:14:25.791Z,62.20
2022-11-17T07:15:26.785Z,57.20
2022-11-17T07:16:25.786Z,60.10
2022-11-17T07:17:25.803Z,56.24
2022-11-17T07:18:25.769Z,61.39
2022-11-17T07:19:25.757Z,59.62
2022-11-17T07:20:25.754Z,55.27
2022-11-17T07:21:25.751Z,59.30
2022-11-17T07:22:25.810Z,60.75
2022-11-17T07:23:25.722Z,60.75
2022-11-17T07:24:25.721Z,55.43
2022-11-17T07:25:25.719Z,53.66
2022-11-17T07:26:25.704Z,58.49
2022-11-17T07:27:25.696Z,59.62
2022-11-17T07:28:25.705Z,57.69
2022-11-17T07:29:25.681Z,53.50
2022-11-17T07:30:25.668Z,56.24
2022-11-17T07:31:25.657Z,57.52
2022-11-17T07:32:25.652Z,54.46
2022-11-17T07:33:25.671Z,53.33
2022-11-17T07:34:25.626Z,56.07
2022-11-17T07:35:26.698Z,51.24
2022-11-17T07:36:25.617Z,57.85
2022-11-17T07:37:25.617Z,56.56
2022-11-17T07:38:25.626Z,57.52
2022-11-17T07:39:25.589Z,56.88
2022-11-17T07:40:25.630Z,61.23
2022-11-17T07:41:25.581Z,56.88
2022-11-17T07:42:25.577Z,59.14
2022-11-17T07:43:25.593Z,59.46
2022-11-17T07:44:25.559Z,60.42
2022-11-17T07:45:31.402Z,61.71
2022-11-17T07:46:27.570Z,56.88
2022-11-17T07:47:25.532Z,60.91
2022-11-17T07:48:25.559Z,60.10
2022-11-17T07:49:25.516Z,58.49
2022-11-17T07:50:25.540Z,59.62
2022-11-17T07:51:25.500Z,58.65
2022-11-17T07:52:25.495Z,60.26
2022-11-17T07:53:25.524Z,59.94
2022-11-17T07:54:25.483Z,62.52
2022-11-17T07:55:25.480Z,60.26
2022-11-17T07:56:25.479Z,60.91
2022-11-17T07:57:25.465Z,61.55
2022-11-17T07:58:25.492Z,58.17
2022-11-17T07:59:25.450Z,57.36
2022-11-17T08:00:25.464Z,56.07
2022-11-17T08:01:25.499Z,56.56
2022-11-17T08:02:25.430Z,59.14
2022-11-17T08:03:25.495Z,50.92
2022-11-17T08:04:25.415Z,52.37
2022-11-17T08:05:25.395Z,53.82
2022-11-17T08:06:25.398Z,54.46
2022-11-17T08:07:25.451Z,49.95
2022-11-17T08:08:25.419Z,55.43
2022-11-17T08:09:25.378Z,55.91
2022-11-17T08:10:25.361Z,55.11
2022-11-17T08:11:25.352Z,61.39
2022-11-17T08:12:25.346Z,60.26
2022-11-17T08:13:25.365Z,56.07
2022-11-17T08:14:25.333Z,62.04
2022-11-17T08:15:25.324Z,57.69
2022-11-17T08:16:25.305Z,56.40
2022-11-17T08:17:25.300Z,57.36
2022-11-17T08:18:25.328Z,56.40
2022-11-17T08:19:25.286Z,56.07
2022-11-17T08:20:25.282Z,57.69
2022-11-17T08:21:25.269Z,56.88
2022-11-17T08:22:25.266Z,60.91
2022-11-17T08:23:25.368Z,59.30
2022-11-17T08:24:25.247Z,57.69
2022-11-17T08:25:25.241Z,56.88
2022-11-17T08:26:25.235Z,61.39
2022-11-17T08:27:25.229Z,55.91
2022-11-17T08:28:25.251Z,55.59
2022-11-17T08:29:25.211Z,57.52
2022-11-17T08:30:25.202Z,55.59
2022-11-17T08:31:25.198Z,62.20
2022-11-17T08:32:25.194Z,58.81
2022-11-17T08:33:25.211Z,58.49
2022-11-17T08:34:25.175Z,61.87
2022-11-17T08:35:25.167Z,60.75
2022-11-17T08:36:25.164Z,59.30
2022-11-17T08:37:25.146Z,54.95
2022-11-17T08:38:25.161Z,55.59
2022-11-17T08:39:26.214Z,59.46
2022-11-17T08:40:25.134Z,56.56
2022-11-17T08:41:25.123Z,61.55
2022-11-17T08:42:25.108Z,59.62
2022-11-17T08:43:25.127Z,57.52
2022-11-17T08:44:25.103Z,59.14
2022-11-17T08:45:25.089Z,58.49
2022-11-17T08:46:25.077Z,61.71
2022-11-17T08:47:25.069Z,61.55
2022-11-17T08:48:25.091Z,59.94
2022-11-17T08:49:25.057Z,58.01
2022-11-17T08:50:25.050Z,59.46
2022-11-17T08:51:25.045Z,63.00
2022-11-17T08:52:25.033Z,59.46
2022-11-17T08:53:25.055Z,59.30
2022-11-17T08:54:25.015Z,57.85
2022-11-17T08:55:25.057Z,60.59
2022-11-17T08:56:25.007Z,59.94
2022-11-17T08:57:25.027Z,60.75
2022-11-17T08:58:25.011Z,58.49
2022-11-17T08:59:24.980Z,56.56
2022-11-17T09:00:24.977Z,55.59
2022-11-17T09:01:24.979Z,58.65
2022-11-17T09:02:24.953Z,59.78
2022-11-17T09:03:24.978Z,58.01
2022-11-17T09:04:24.956Z,56.24
2022-11-17T09:05:24.960Z,58.65
2022-11-17T09:06:24.922Z,62.68
2022-11-17T09:07:25.058Z,55.11
2022-11-17T09:08:52.189Z,54.30
2022-11-17T09:09:26.929Z,60.59
2022-11-17T09:10:24.900Z,56.40
2022-11-17T09:11:24.880Z,56.56
2022-11-17T09:12:24.878Z,59.14
2022-11-17T09:13:24.902Z,57.69
2022-11-17T09:14:24.867Z,61.55
2022-11-17T09:15:24.851Z,50.60
2022-11-17T09:16:24.851Z,51.40
2022-11-17T09:17:24.835Z,60.75
2022-11-17T09:18:24.829Z,59.14
2022-11-17T09:19:24.849Z,59.94
2022-11-17T09:20:24.818Z,61.71
2022-11-17T09:21:24.815Z,61.39
2022-11-17T09:22:24.805Z,60.26
2022-11-17T09:23:24.794Z,57.04
2022-11-17T09:24:24.817Z,57.04
2022-11-17T09:25:24.776Z,58.49
2022-11-17T09:26:25.775Z,59.30
2022-11-17T09:27:24.784Z,60.75
2022-11-17T09:28:24.750Z,57.20
2022-11-17T09:29:24.772Z,56.72
2022-11-17T09:30:24.738Z,57.69
2022-11-17T09:31:24.766Z,58.97
2022-11-17T09:32:24.723Z,61.07
2022-11-17T09:33:24.737Z,63.33
2022-11-17T09:34:24.791Z,61.23
2022-11-17T09:35:24.706Z,58.97
2022-11-17T09:36:24.691Z,56.24
2022-11-17T09:37:24.684Z,58.81
2022-11-17T09:38:24.683Z,61.55
2022-11-17T09:39:24.691Z,58.17
2022-11-17T09:40:24.654Z,61.71
2022-11-17T09:41:24.652Z,61.07
2022-11-17T09:42:24.644Z,61.23
2022-11-17T09:43:24.639Z,62.04
2022-11-17T09:44:24.650Z,60.26
2022-11-17T09:45:24.620Z,58.81
2022-11-17T09:46:24.614Z,58.17
2022-11-17T09:47:24.599Z,62.36
2022-11-17T09:48:40.815Z,63.16
2022-11-17T09:49:26.613Z,60.26
2022-11-17T09:50:24.579Z,60.91
2022-11-17T09:51:24.571Z,59.30
2022-11-17T09:52:24.566Z,55.59
2022-11-17T09:53:24.555Z,57.85
2022-11-17T09:54:24.580Z,59.14
2022-11-17T09:55:28.430Z,58.97
2022-11-17T09:56:25.529Z,60.59
2022-11-17T09:57:24.529Z,61.55
2022-11-17T09:58:24.516Z,60.42
2022-11-17T09:59:24.599Z,59.14
2022-11-17T10:00:24.495Z,58.97
2022-11-17T10:01:24.496Z,60.91
2022-11-17T10:02:24.563Z,64.78
2022-11-17T10:03:24.474Z,56.07
2022-11-17T10:04:24.495Z,58.17
2022-11-17T10:05:24.465Z,55.91
2022-11-17T10:06:24.458Z,59.14
2022-11-17T10:07:24.486Z,59.94
2022-11-17T10:08:24.437Z,56.88
2022-11-17T10:09:26.095Z,53.98
2022-11-17T10:10:25.424Z,55.11
2022-11-17T10:11:24.419Z,55.75
2022-11-17T10:12:24.410Z,58.97
2022-11-17T10:13:24.403Z,61.39
2022-11-17T10:14:24.417Z,55.91
2022-11-17T10:15:24.386Z,54.30
2022-11-17T10:16:24.382Z,52.05
2022-11-17T10:17:24.366Z,51.40
2022-11-17T10:18:24.357Z,62.36
2022-11-17T10:19:24.402Z,58.49
2022-11-17T10:20:24.353Z,59.46
2022-11-17T10:21:24.337Z,57.69
2022-11-17T10:22:24.336Z,60.91
2022-11-17T10:23:24.329Z,58.65
2022-11-17T10:24:24.367Z,54.79
2022-11-17T10:25:24.316Z,62.68
2022-11-17T10:26:24.301Z,59.62
2022-11-17T10:27:24.295Z,57.69
2022-11-17T10:28:24.287Z,58.17
2022-11-17T10:29:24.315Z,60.26
2022-11-17T10:30:24.303Z,60.91
2022-11-17T10:31:24.336Z,59.78
2022-11-17T10:32:24.255Z,57.69
2022-11-17T10:33:24.245Z,62.36
2022-11-17T10:34:29.305Z,61.07
2022-11-17T10:35:26.258Z,60.10
2022-11-17T10:36:24.218Z,60.75
2022-11-17T10:37:24.216Z,60.26
2022-11-17T10:38:24.791Z,59.30
2022-11-17T10:39:24.202Z,58.49
2022-11-17T10:40:25.865Z,61.07
2022-11-17T10:41:25.192Z,59.62
2022-11-17T10:42:24.184Z,63.65
2022-11-17T10:43:24.166Z,59.30
2022-11-17T10:44:24.160Z,60.75
2022-11-17T10:45:24.178Z,61.39
2022-11-17T10:46:24.148Z,61.71
2022-11-17T10:47:24.138Z,60.10
2022-11-17T10:48:24.131Z,58.97
2022-11-17T10:49:24.122Z,57.04
2022-11-17T10:50:24.150Z,60.26
2022-11-17T10:51:24.111Z,57.36
2022-11-17T10:52:24.102Z,58.49
2022-11-17T10:53:24.093Z,61.39
2022-11-17T10:54:24.091Z,62.04
2022-11-17T10:55:24.105Z,57.85
2022-11-17T10:56:24.071Z,54.95
2022-11-17T10:57:24.061Z,57.20
2022-11-17T10:58:24.054Z,56.40
2022-11-17T10:59:24.050Z,59.62
2022-11-17T11:00:24.073Z,56.24
2022-11-17T11:01:25.963Z,55.11
2022-11-17T11:02:25.029Z,53.01
2022-11-17T11:03:24.018Z,53.98
2022-11-17T11:04:24.009Z,57.36
2022-11-17T11:05:24.028Z,55.59
2022-11-17T11:06:24.003Z,55.27
2022-11-17T11:07:24.031Z,55.27
2022-11-17T11:08:23.979Z,49.47
2022-11-17T11:09:23.975Z,54.62
2022-11-17T11:10:23.986Z,54.62
2022-11-17T11:11:23.961Z,50.92
2022-11-17T11:12:23.945Z,58.81
2022-11-17T11:13:24.937Z,59.30
2022-11-17T11:14:23.937Z,52.85
2022-11-17T11:15:23.942Z,54.46
2022-11-17T11:16:23.914Z,51.88
2022-11-17T11:17:23.905Z,50.27
2022-11-17T11:18:23.896Z,56.07
2022-11-17T11:19:23.889Z,53.66
2022-11-17T11:20:23.910Z,53.50
2022-11-17T11:21:23.876Z,57.04
2022-11-17T11:22:23.868Z,52.85
2022-11-17T11:23:23.859Z,51.24
2022-11-17T11:24:23.853Z,58.17
2022-11-17T11:25:23.867Z,50.43
2022-11-17T11:26:23.837Z,57.69
2022-11-17T11:27:23.831Z,52.85
2022-11-17T11:28:23.828Z,47.37
2022-11-17T11:29:23.816Z,48.02
2022-11-17T11:30:23.835Z,50.43
2022-11-17T11:31:23.801Z,54.62
2022-11-17T11:32:23.796Z,54.95
2022-11-17T11:33:23.791Z,52.69
2022-11-17T11:34:23.786Z,52.21
2022-11-17T11:35:23.798Z,49.63
2022-11-17T11:36:23.761Z,48.02
2022-11-17T11:37:23.752Z,50.92
2022-11-17T11:38:23.744Z,56.88
2022-11-17T11:39:23.742Z,55.59
2022-11-17T11:40:23.767Z,49.63
2022-11-17T11:41:23.725Z,53.50
2022-11-17T11:42:23.714Z,54.79
2022-11-17T11:43:23.708Z,52.85
2022-11-17T11:44:23.702Z,50.60
2022-11-17T11:45:23.716Z,54.62
2022-11-17T11:46:23.681Z,50.92
2022-11-17T11:47:23.677Z,52.37
2022-11-17T11:48:23.663Z,57.04
2022-11-17T11:49:23.657Z,53.01
2022-11-17T11:50:23.686Z,53.33
2022-11-17T11:51:23.642Z,51.24
2022-11-17T11:52:23.634Z,56.72
2022-11-17T11:53:23.628Z,49.95
2022-11-17T11:54:23.641Z,54.79
2022-11-17T11:55:23.612Z,53.33
2022-11-17T11:56:23.633Z,52.21
2022-11-17T11:57:23.599Z,46.25
2022-11-17T11:58:23.585Z,49.79
2022-11-17T11:59:23.580Z,58.97
2022-11-17T12:00:23.568Z,53.66
2022-11-17T12:01:23.587Z,49.63
2022-11-17T12:02:23.625Z,49.31
2022-11-17T12:03:23.612Z,54.46
2022-11-17T12:04:23.538Z,53.01
2022-11-17T12:05:23.531Z,57.85
2022-11-17T12:06:23.549Z,55.75
2022-11-17T12:07:23.565Z,54.30
2022-11-17T12:08:23.506Z,52.21
2022-11-17T12:09:23.498Z,55.91
2022-11-17T12:10:23.488Z,57.52
2022-11-17T12:11:23.524Z,54.62
2022-11-17T12:12:23.473Z,55.75
2022-11-17T12:13:23.474Z,55.11
2022-11-17T12:14:23.468Z,54.95
2022-11-17T12:15:23.451Z,52.05
2022-11-17T12:16:23.471Z,53.50
2022-11-17T12:17:23.479Z,56.24
2022-11-17T12:18:23.431Z,51.24
2022-11-17T12:19:23.420Z,53.01
2022-11-17T12:20:23.408Z,48.98
2022-11-17T12:21:23.423Z,51.56
2022-11-17T12:22:23.398Z,49.47
2022-11-17T12:23:23.398Z,53.33
2022-11-17T12:24:23.379Z,56.88
2022-11-17T12:25:23.368Z,56.24
2022-11-17T12:26:23.389Z,49.95
2022-11-17T12:27:23.357Z,48.82
2022-11-17T12:28:23.348Z,44.96
2022-11-17T12:29:23.339Z,44.96
2022-11-17T12:30:23.331Z,55.27
2022-11-17T12:31:23.348Z,52.69
2022-11-17T12:32:23.313Z,52.53
2022-11-17T12:33:23.309Z,52.69
2022-11-17T12:34:23.303Z,59.78
2022-11-17T12:35:24.289Z,50.76
2022-11-17T12:36:29.855Z,55.27
2022-11-17T12:37:25.276Z,57.69
2022-11-17T12:38:23.272Z,55.11
2022-11-17T12:39:23.280Z,54.46
2022-11-17T12:40:23.254Z,53.50
2022-11-17T12:41:23.270Z,53.50
2022-11-17T12:42:23.235Z,57.69
2022-11-17T12:43:23.235Z,58.17
2022-11-17T12:44:23.227Z,54.46
2022-11-17T12:45:23.211Z,56.56
2022-11-17T12:46:23.230Z,57.36
2022-11-17T12:47:24.195Z,55.59
2022-11-17T12:48:35.997Z,58.33
2022-11-17T12:49:25.180Z,60.59
2022-11-17T12:50:23.175Z,54.62
2022-11-17T12:51:23.195Z,58.01
2022-11-17T12:52:23.159Z,59.94